sensor_id;sensor_type;location;lat;lon;timestamp;P1;durP1;ratioP1;P2;durP2;ratioP2
47513;SDS011;33951;51.988;5.910;2022-08-01T05:00:56;18.65;;;14.15;;
47513;SDS011;33951;51.988;5.910;2022-08-01T05:03:45;18.10;;;14.85;;
47513;SDS011;33951;51.988;5.910;2022-08-01T05:06:14;20.30;;;15.57;;
47513;SDS011;33951;51.988;5.910;2022-08-01T05:08:42;19.55;;;15.15;;
47513;SDS011;33951;51.988;5.910;2022-08-01T05:14:34;16.70;;;13.48;;
47513;SDS011;33951;51.988;5.910;2022-08-01T05:17:36;19.30;;;14.88;;
47513;SDS011;33951;51.988;5.910;2022-08-01T05:20:21;16.95;;;12.63;;
47513;SDS011;33951;51.988;5.910;2022-08-01T05:22:49;14.35;;;12.10;;
47513;SDS011;33951;51.988;5.910;2022-08-01T05:25:28;18.70;;;13.88;;
47513;SDS011;33951;51.988;5.910;2022-08-01T05:27:56;18.83;;;13.18;;
47513;SDS011;33951;51.988;5.910;2022-08-01T05:34:06;13.48;;;11.68;;
47513;SDS011;33951;51.988;5.910;2022-08-01T05:37:11;16.15;;;11.60;;
47513;SDS011;33951;51.988;5.910;2022-08-01T05:40:11;17.33;;;13.13;;
47513;SDS011;33951;51.988;5.910;2022-08-01T05:42:45;13.32;;;10.43;;
47513;SDS011;33951;51.988;5.910;2022-08-01T05:45:32;12.10;;;10.35;;
47513;SDS011;33951;51.988;5.910;2022-08-01T05:51:34;16.58;;;10.20;;
47513;SDS011;33951;51.988;5.910;2022-08-01T05:54:30;16.33;;;12.35;;
47513;SDS011;33951;51.988;5.910;2022-08-01T06:00:24;11.45;;;10.25;;
47513;SDS011;33951;51.988;5.910;2022-08-01T06:02:55;8.07;;;6.88;;
47513;SDS011;33951;51.988;5.910;2022-08-01T06:13:14;6.22;;;5.63;;
47513;SDS011;33951;51.988;5.910;2022-08-01T06:26:06;4.15;;;3.70;;
47513;SDS011;33951;51.988;5.910;2022-08-01T06:28:55;3.47;;;3.17;;
47513;SDS011;33951;51.988;5.910;2022-08-01T06:34:49;3.60;;;2.13;;
47513;SDS011;33951;51.988;5.910;2022-08-01T06:37:19;1.83;;;1.73;;
47513;SDS011;33951;51.988;5.910;2022-08-01T06:43:34;4.63;;;2.38;;
47513;SDS011;33951;51.988;5.910;2022-08-01T06:52:22;3.78;;;2.15;;
47513;SDS011;33951;51.988;5.910;2022-08-01T06:55:08;2.17;;;1.80;;
47513;SDS011;33951;51.988;5.910;2022-08-01T06:57:39;3.60;;;1.83;;
47513;SDS011;33951;51.988;5.910;2022-08-01T07:00:37;1.75;;;1.65;;
47513;SDS011;33951;51.988;5.910;2022-08-01T07:07:11;3.38;;;1.92;;
47513;SDS011;33951;51.988;5.910;2022-08-01T07:12:55;3.40;;;1.83;;
47513;SDS011;33951;51.988;5.910;2022-08-01T07:16:15;1.90;;;1.80;;
47513;SDS011;33951;51.988;5.910;2022-08-01T07:19:22;4.75;;;2.33;;
47513;SDS011;33951;51.988;5.910;2022-08-01T07:28:44;3.72;;;2.85;;
47513;SDS011;33951;51.988;5.910;2022-08-01T08:28:24;3.35;;;2.42;;
47513;SDS011;33951;51.988;5.910;2022-08-01T10:27:02;12.65;;;5.38;;
47513;SDS011;33951;51.988;5.910;2022-08-01T10:44:04;12.52;;;4.60;;
47513;SDS011;33951;51.988;5.910;2022-08-01T10:47:33;12.50;;;5.07;;
47513;SDS011;33951;51.988;5.910;2022-08-01T10:57:48;12.55;;;3.58;;
47513;SDS011;33951;51.988;5.910;2022-08-01T11:07:54;10.85;;;4.32;;
47513;SDS011;33951;51.988;5.910;2022-08-01T11:39:18;10.18;;;3.85;;
47513;SDS011;33951;51.988;5.910;2022-08-01T11:41:52;12.13;;;4.13;;
47513;SDS011;33951;51.988;5.910;2022-08-01T11:44:23;10.50;;;4.07;;
47513;SDS011;33951;51.988;5.910;2022-08-01T11:47:05;9.45;;;3.53;;
47513;SDS011;33951;51.988;5.910;2022-08-01T11:52:13;11.82;;;4.82;;
47513;SDS011;33951;51.988;5.910;2022-08-01T11:55:04;9.30;;;3.90;;
47513;SDS011;33951;51.988;5.910;2022-08-01T11:57:41;10.73;;;3.22;;
47513;SDS011;33951;51.988;5.910;2022-08-01T12:00:13;14.55;;;4.07;;
47513;SDS011;33951;51.988;5.910;2022-08-01T12:02:41;8.88;;;3.30;;
47513;SDS011;33951;51.988;5.910;2022-08-01T12:05:08;10.05;;;3.28;;
47513;SDS011;33951;51.988;5.910;2022-08-01T12:07:56;10.07;;;3.08;;
47513;SDS011;33951;51.988;5.910;2022-08-01T12:10:49;8.25;;;3.20;;
47513;SDS011;33951;51.988;5.910;2022-08-01T12:13:20;7.75;;;3.03;;
47513;SDS011;33951;51.988;5.910;2022-08-01T12:15:46;9.65;;;3.40;;
47513;SDS011;33951;51.988;5.910;2022-08-01T12:18:17;9.77;;;3.58;;
47513;SDS011;33951;51.988;5.910;2022-08-01T12:20:45;6.45;;;3.08;;
47513;SDS011;33951;51.988;5.910;2022-08-01T12:23:28;7.32;;;2.38;;
47513;SDS011;33951;51.988;5.910;2022-08-01T12:29:09;9.57;;;2.90;;
47513;SDS011;33951;51.988;5.910;2022-08-01T12:32:02;7.03;;;2.58;;
47513;SDS011;33951;51.988;5.910;2022-08-01T12:34:45;6.78;;;2.70;;
47513;SDS011;33951;51.988;5.910;2022-08-01T12:37:19;9.43;;;2.70;;
47513;SDS011;33951;51.988;5.910;2022-08-01T12:39:53;7.78;;;2.92;;
47513;SDS011;33951;51.988;5.910;2022-08-01T12:42:35;8.38;;;2.53;;
47513;SDS011;33951;51.988;5.910;2022-08-01T12:48:33;4.93;;;2.35;;
47513;SDS011;33951;51.988;5.910;2022-08-01T12:54:28;8.13;;;2.22;;
47513;SDS011;33951;51.988;5.910;2022-08-01T12:57:30;6.85;;;2.88;;
47513;SDS011;33951;51.988;5.910;2022-08-01T13:00:28;5.55;;;2.20;;
47513;SDS011;33951;51.988;5.910;2022-08-01T13:03:38;7.90;;;2.25;;
47513;SDS011;33951;51.988;5.910;2022-08-01T13:09:28;5.72;;;2.20;;
47513;SDS011;33951;51.988;5.910;2022-08-01T13:12:13;6.18;;;2.47;;
47513;SDS011;33951;51.988;5.910;2022-08-01T13:15:20;6.53;;;2.20;;
47513;SDS011;33951;51.988;5.910;2022-08-01T13:24:22;4.30;;;2.13;;
47513;SDS011;33951;51.988;5.910;2022-08-01T13:33:50;8.65;;;3.08;;
47513;SDS011;33951;51.988;5.910;2022-08-01T13:36:22;6.07;;;2.10;;
47513;SDS011;33951;51.988;5.910;2022-08-01T13:39:07;9.93;;;3.92;;
47513;SDS011;33951;51.988;5.910;2022-08-01T13:42:20;8.82;;;4.07;;
47513;SDS011;33951;51.988;5.910;2022-08-01T13:45:33;6.68;;;3.55;;
47513;SDS011;33951;51.988;5.910;2022-08-01T13:55:37;5.28;;;2.22;;
47513;SDS011;33951;51.988;5.910;2022-08-01T14:01:55;7.03;;;1.92;;
47513;SDS011;33951;51.988;5.910;2022-08-01T14:04:23;5.70;;;2.90;;
47513;SDS011;33951;51.988;5.910;2022-08-01T14:12:58;3.63;;;2.15;;
47513;SDS011;33951;51.988;5.910;2022-08-01T14:15:57;5.50;;;2.60;;
47513;SDS011;33951;51.988;5.910;2022-08-01T14:18:46;5.93;;;2.28;;
47513;SDS011;33951;51.988;5.910;2022-08-01T14:21:15;5.43;;;2.07;;
47513;SDS011;33951;51.988;5.910;2022-08-01T14:23:59;6.50;;;2.50;;
47513;SDS011;33951;51.988;5.910;2022-08-01T14:26:55;8.68;;;2.05;;
47513;SDS011;33951;51.988;5.910;2022-08-01T14:29:53;4.47;;;1.88;;
47513;SDS011;33951;51.988;5.910;2022-08-01T14:32:29;4.18;;;1.80;;
47513;SDS011;33951;51.988;5.910;2022-08-01T14:35:11;5.53;;;1.90;;
47513;SDS011;33951;51.988;5.910;2022-08-01T14:37:42;4.93;;;2.42;;
47513;SDS011;33951;51.988;5.910;2022-08-01T14:41:13;7.35;;;1.90;;
47513;SDS011;33951;51.988;5.910;2022-08-01T14:43:52;6.80;;;1.73;;
47513;SDS011;33951;51.988;5.910;2022-08-01T14:46:33;2.75;;;1.83;;
47513;SDS011;33951;51.988;5.910;2022-08-01T14:49:22;3.05;;;1.45;;
47513;SDS011;33951;51.988;5.910;2022-08-01T14:52:05;6.00;;;1.95;;
47513;SDS011;33951;51.988;5.910;2022-08-01T14:57:48;2.33;;;1.10;;
47513;SDS011;33951;51.988;5.910;2022-08-01T15:00:31;2.38;;;1.80;;
47513;SDS011;33951;51.988;5.910;2022-08-01T15:03:02;4.55;;;2.20;;
47513;SDS011;33951;51.988;5.910;2022-08-01T15:08:43;5.07;;;1.60;;
47513;SDS011;33951;51.988;5.910;2022-08-01T15:13:53;3.72;;;1.73;;
47513;SDS011;33951;51.988;5.910;2022-08-01T15:16:46;2.72;;;1.42;;
47513;SDS011;33951;51.988;5.910;2022-08-01T15:19:19;4.60;;;1.50;;
47513;SDS011;33951;51.988;5.910;2022-08-01T15:22:21;3.45;;;2.00;;
47513;SDS011;33951;51.988;5.910;2022-08-01T15:28:34;4.05;;;2.03;;
47513;SDS011;33951;51.988;5.910;2022-08-01T15:31:05;5.28;;;2.00;;
47513;SDS011;33951;51.988;5.910;2022-08-01T15:34:20;4.18;;;1.92;;
47513;SDS011;33951;51.988;5.910;2022-08-01T15:36:48;4.07;;;2.25;;
47513;SDS011;33951;51.988;5.910;2022-08-01T15:39:14;3.75;;;2.58;;
47513;SDS011;33951;51.988;5.910;2022-08-01T15:41:40;5.32;;;1.88;;
47513;SDS011;33951;51.988;5.910;2022-08-01T15:47:13;4.65;;;2.65;;
47513;SDS011;33951;51.988;5.910;2022-08-01T15:49:39;7.32;;;2.75;;
47513;SDS011;33951;51.988;5.910;2022-08-01T15:55:08;1.95;;;1.13;;
47513;SDS011;33951;51.988;5.910;2022-08-01T16:01:46;2.15;;;1.40;;
47513;SDS011;33951;51.988;5.910;2022-08-01T16:05:02;4.65;;;1.20;;
47513;SDS011;33951;51.988;5.910;2022-08-01T16:08:15;3.53;;;1.45;;
47513;SDS011;33951;51.988;5.910;2022-08-01T16:10:41;3.83;;;1.35;;
47513;SDS011;33951;51.988;5.910;2022-08-01T16:13:07;1.45;;;1.20;;
47513;SDS011;33951;51.988;5.910;2022-08-01T16:15:34;2.55;;;1.25;;
47513;SDS011;33951;51.988;5.910;2022-08-01T16:18:00;1.95;;;1.20;;
47513;SDS011;33951;51.988;5.910;2022-08-01T16:20:29;2.20;;;1.40;;
47513;SDS011;33951;51.988;5.910;2022-08-01T16:22:54;2.53;;;1.27;;
47513;SDS011;33951;51.988;5.910;2022-08-01T16:25:20;3.78;;;1.30;;
47513;SDS011;33951;51.988;5.910;2022-08-01T16:27:46;2.72;;;1.35;;
47513;SDS011;33951;51.988;5.910;2022-08-01T16:30:12;2.47;;;1.27;;
47513;SDS011;33951;51.988;5.910;2022-08-01T16:32:38;6.55;;;2.15;;
47513;SDS011;33951;51.988;5.910;2022-08-01T16:35:03;4.38;;;1.60;;
47513;SDS011;33951;51.988;5.910;2022-08-01T16:37:32;5.03;;;1.58;;
47513;SDS011;33951;51.988;5.910;2022-08-01T16:39:58;3.42;;;1.10;;
47513;SDS011;33951;51.988;5.910;2022-08-01T16:42:26;3.55;;;1.17;;
47513;SDS011;33951;51.988;5.910;2022-08-01T16:44:54;4.20;;;1.70;;
47513;SDS011;33951;51.988;5.910;2022-08-01T16:47:20;2.63;;;1.25;;
47513;SDS011;33951;51.988;5.910;2022-08-01T16:49:46;3.63;;;1.35;;
47513;SDS011;33951;51.988;5.910;2022-08-01T16:52:11;4.38;;;1.55;;
47513;SDS011;33951;51.988;5.910;2022-08-01T16:54:37;3.67;;;1.63;;
47513;SDS011;33951;51.988;5.910;2022-08-01T16:57:03;4.38;;;1.67;;
47513;SDS011;33951;51.988;5.910;2022-08-01T16:59:30;4.05;;;1.70;;
47513;SDS011;33951;51.988;5.910;2022-08-01T17:01:59;4.53;;;1.58;;
47513;SDS011;33951;51.988;5.910;2022-08-01T17:04:26;4.97;;;1.58;;
47513;SDS011;33951;51.988;5.910;2022-08-01T17:06:52;3.70;;;1.40;;
47513;SDS011;33951;51.988;5.910;2022-08-01T17:09:20;3.15;;;1.40;;
47513;SDS011;33951;51.988;5.910;2022-08-01T17:11:48;3.75;;;1.40;;
47513;SDS011;33951;51.988;5.910;2022-08-01T17:14:14;4.20;;;1.42;;
47513;SDS011;33951;51.988;5.910;2022-08-01T17:16:40;2.70;;;1.42;;
47513;SDS011;33951;51.988;5.910;2022-08-01T17:19:09;3.53;;;1.23;;
47513;SDS011;33951;51.988;5.910;2022-08-01T17:21:38;3.33;;;1.67;;
47513;SDS011;33951;51.988;5.910;2022-08-01T17:24:03;3.53;;;1.30;;
47513;SDS011;33951;51.988;5.910;2022-08-01T17:26:29;3.58;;;1.33;;
47513;SDS011;33951;51.988;5.910;2022-08-01T17:28:55;3.85;;;1.40;;
47513;SDS011;33951;51.988;5.910;2022-08-01T17:31:23;2.97;;;1.25;;
47513;SDS011;33951;51.988;5.910;2022-08-01T17:33:57;3.05;;;1.48;;
47513;SDS011;33951;51.988;5.910;2022-08-01T17:39:15;4.32;;;1.30;;
47513;SDS011;33951;51.988;5.910;2022-08-01T17:41:43;3.03;;;1.40;;
47513;SDS011;33951;51.988;5.910;2022-08-01T17:44:09;2.03;;;1.10;;
47513;SDS011;33951;51.988;5.910;2022-08-01T17:46:52;3.47;;;1.45;;
47513;SDS011;33951;51.988;5.910;2022-08-01T17:49:38;4.43;;;1.30;;
47513;SDS011;33951;51.988;5.910;2022-08-01T18:02:25;2.55;;;1.40;;
47513;SDS011;33951;51.988;5.910;2022-08-01T18:05:00;2.50;;;1.20;;
47513;SDS011;33951;51.988;5.910;2022-08-01T18:07:28;3.47;;;1.80;;
47513;SDS011;33951;51.988;5.910;2022-08-01T18:10:14;5.38;;;1.83;;
47513;SDS011;33951;51.988;5.910;2022-08-01T18:12:45;5.25;;;1.58;;
47513;SDS011;33951;51.988;5.910;2022-08-01T18:15:16;4.32;;;1.10;;
47513;SDS011;33951;51.988;5.910;2022-08-01T18:17:42;2.55;;;1.20;;
47513;SDS011;33951;51.988;5.910;2022-08-01T18:20:08;3.63;;;1.65;;
47513;SDS011;33951;51.988;5.910;2022-08-01T18:22:40;2.75;;;1.27;;
47513;SDS011;33951;51.988;5.910;2022-08-01T18:25:08;2.25;;;1.15;;
47513;SDS011;33951;51.988;5.910;2022-08-01T18:27:34;2.85;;;1.20;;
47513;SDS011;33951;51.988;5.910;2022-08-01T18:30:04;2.67;;;1.25;;
47513;SDS011;33951;51.988;5.910;2022-08-01T18:32:32;1.85;;;1.13;;
47513;SDS011;33951;51.988;5.910;2022-08-01T18:35:19;2.20;;;1.00;;
47513;SDS011;33951;51.988;5.910;2022-08-01T18:37:44;2.72;;;1.20;;
47513;SDS011;33951;51.988;5.910;2022-08-01T18:40:28;1.63;;;1.10;;
47513;SDS011;33951;51.988;5.910;2022-08-01T18:46:03;2.60;;;1.20;;
47513;SDS011;33951;51.988;5.910;2022-08-01T18:48:31;2.08;;;1.10;;
47513;SDS011;33951;51.988;5.910;2022-08-01T18:51:17;2.90;;;1.63;;
47513;SDS011;33951;51.988;5.910;2022-08-01T18:53:46;1.15;;;1.00;;
47513;SDS011;33951;51.988;5.910;2022-08-01T18:56:12;2.65;;;1.40;;
47513;SDS011;33951;51.988;5.910;2022-08-01T18:58:41;4.10;;;1.52;;
47513;SDS011;33951;51.988;5.910;2022-08-01T19:05:28;3.70;;;1.83;;
47513;SDS011;33951;51.988;5.910;2022-08-01T19:07:57;1.75;;;1.10;;
47513;SDS011;33951;51.988;5.910;2022-08-01T19:10:46;1.88;;;1.10;;
47513;SDS011;33951;51.988;5.910;2022-08-01T19:13:13;3.63;;;1.50;;
47513;SDS011;33951;51.988;5.910;2022-08-01T19:15:58;3.25;;;1.40;;
47513;SDS011;33951;51.988;5.910;2022-08-01T19:18:33;2.00;;;1.20;;
47513;SDS011;33951;51.988;5.910;2022-08-01T19:20:59;3.22;;;1.30;;
47513;SDS011;33951;51.988;5.910;2022-08-01T19:23:33;3.78;;;1.40;;
47513;SDS011;33951;51.988;5.910;2022-08-01T19:26:21;2.65;;;1.27;;
47513;SDS011;33951;51.988;5.910;2022-08-01T19:28:52;4.40;;;1.23;;
47513;SDS011;33951;51.988;5.910;2022-08-01T19:31:28;2.83;;;1.00;;
47513;SDS011;33951;51.988;5.910;2022-08-01T19:33:59;2.40;;;0.90;;
47513;SDS011;33951;51.988;5.910;2022-08-01T19:38:59;3.10;;;1.33;;
47513;SDS011;33951;51.988;5.910;2022-08-01T19:41:25;3.03;;;1.15;;
47513;SDS011;33951;51.988;5.910;2022-08-01T19:43:52;2.75;;;1.58;;
47513;SDS011;33951;51.988;5.910;2022-08-01T19:46:19;3.00;;;1.33;;
47513;SDS011;33951;51.988;5.910;2022-08-01T19:48:45;2.30;;;1.20;;
47513;SDS011;33951;51.988;5.910;2022-08-01T19:51:14;3.00;;;1.27;;
47513;SDS011;33951;51.988;5.910;2022-08-01T19:53:41;1.92;;;1.00;;
47513;SDS011;33951;51.988;5.910;2022-08-01T19:56:11;1.70;;;1.00;;
47513;SDS011;33951;51.988;5.910;2022-08-01T19:58:51;7.03;;;2.33;;
47513;SDS011;33951;51.988;5.910;2022-08-01T20:01:24;3.58;;;1.60;;
47513;SDS011;33951;51.988;5.910;2022-08-01T20:03:55;2.92;;;1.67;;
47513;SDS011;33951;51.988;5.910;2022-08-01T20:06:34;2.33;;;1.08;;
47513;SDS011;33951;51.988;5.910;2022-08-01T20:09:11;3.08;;;1.08;;
47513;SDS011;33951;51.988;5.910;2022-08-01T20:11:48;5.13;;;1.30;;
47513;SDS011;33951;51.988;5.910;2022-08-01T20:14:21;3.15;;;1.35;;
47513;SDS011;33951;51.988;5.910;2022-08-01T20:16:51;2.03;;;1.10;;
47513;SDS011;33951;51.988;5.910;2022-08-01T20:19:21;1.40;;;1.05;;
47513;SDS011;33951;51.988;5.910;2022-08-01T20:21:49;3.63;;;1.35;;
47513;SDS011;33951;51.988;5.910;2022-08-01T20:24:40;2.10;;;1.60;;
47513;SDS011;33951;51.988;5.910;2022-08-01T20:29:36;4.22;;;1.30;;
47513;SDS011;33951;51.988;5.910;2022-08-01T20:32:03;4.38;;;1.55;;
47513;SDS011;33951;51.988;5.910;2022-08-01T20:34:29;3.05;;;1.40;;
47513;SDS011;33951;51.988;5.910;2022-08-01T20:37:04;2.58;;;1.10;;
47513;SDS011;33951;51.988;5.910;2022-08-01T20:39:33;1.45;;;0.93;;
47513;SDS011;33951;51.988;5.910;2022-08-01T20:42:03;2.13;;;1.02;;
47513;SDS011;33951;51.988;5.910;2022-08-01T20:44:30;3.30;;;1.40;;
47513;SDS011;33951;51.988;5.910;2022-08-01T20:46:57;3.20;;;1.23;;
47513;SDS011;33951;51.988;5.910;2022-08-01T20:49:25;2.72;;;0.95;;
47513;SDS011;33951;51.988;5.910;2022-08-01T20:51:53;3.17;;;1.27;;
47513;SDS011;33951;51.988;5.910;2022-08-01T20:54:21;3.85;;;1.10;;
47513;SDS011;33951;51.988;5.910;2022-08-01T20:56:56;3.45;;;1.42;;
47513;SDS011;33951;51.988;5.910;2022-08-01T20:59:27;3.65;;;1.42;;
47513;SDS011;33951;51.988;5.910;2022-08-01T21:02:05;2.28;;;1.25;;
47513;SDS011;33951;51.988;5.910;2022-08-01T21:04:51;2.65;;;1.10;;
47513;SDS011;33951;51.988;5.910;2022-08-01T21:07:21;4.93;;;1.40;;
47513;SDS011;33951;51.988;5.910;2022-08-01T21:15:18;3.97;;;1.40;;
47513;SDS011;33951;51.988;5.910;2022-08-01T21:18:00;3.00;;;1.20;;
47513;SDS011;33951;51.988;5.910;2022-08-01T21:20:28;5.30;;;1.48;;
47513;SDS011;33951;51.988;5.910;2022-08-01T21:25:49;2.78;;;1.20;;
47513;SDS011;33951;51.988;5.910;2022-08-01T22:00:39;3.47;;;1.10;;
47513;SDS011;33951;51.988;5.910;2022-08-01T22:21:43;2.65;;;1.42;;
47513;SDS011;33951;51.988;5.910;2022-08-01T23:50:48;6.65;;;2.38;;
